sensor_id;sensor_type;location;lat;lon;timestamp;P1;durP1;ratioP1;P2;durP2;ratioP2
56005;SDS011;41888;44.696;10.522;2022-07-23T00:01:33;10.57;;;7.05;;
56005;SDS011;41888;44.696;10.522;2022-07-23T00:03:59;9.80;;;6.55;;
56005;SDS011;41888;44.696;10.522;2022-07-23T00:06:25;11.00;;;7.32;;
56005;SDS011;41888;44.696;10.522;2022-07-23T00:08:52;10.02;;;7.10;;
56005;SDS011;41888;44.696;10.522;2022-07-23T00:11:18;9.55;;;6.80;;
56005;SDS011;41888;44.696;10.522;2022-07-23T00:13:46;11.90;;;6.63;;
56005;SDS011;41888;44.696;10.522;2022-07-23T00:16:13;15.32;;;7.78;;
56005;SDS011;41888;44.696;10.522;2022-07-23T00:18:39;13.07;;;6.75;;
56005;SDS011;41888;44.696;10.522;2022-07-23T00:21:06;9.82;;;7.53;;
56005;SDS011;41888;44.696;10.522;2022-07-23T00:23:32;9.98;;;6.90;;
56005;SDS011;41888;44.696;10.522;2022-07-23T00:25:58;13.32;;;6.60;;
56005;SDS011;41888;44.696;10.522;2022-07-23T00:28:25;12.85;;;7.50;;
56005;SDS011;41888;44.696;10.522;2022-07-23T00:30:51;10.95;;;7.10;;
56005;SDS011;41888;44.696;10.522;2022-07-23T00:33:17;10.00;;;6.75;;
56005;SDS011;41888;44.696;10.522;2022-07-23T00:35:43;11.20;;;7.03;;
56005;SDS011;41888;44.696;10.522;2022-07-23T00:38:10;10.77;;;6.80;;
56005;SDS011;41888;44.696;10.522;2022-07-23T00:40:37;10.07;;;6.35;;
56005;SDS011;41888;44.696;10.522;2022-07-23T00:43:04;10.55;;;6.57;;
56005;SDS011;41888;44.696;10.522;2022-07-23T00:45:30;11.43;;;6.22;;
56005;SDS011;41888;44.696;10.522;2022-07-23T00:47:57;9.25;;;6.25;;
56005;SDS011;41888;44.696;10.522;2022-07-23T00:50:23;11.55;;;7.22;;
56005;SDS011;41888;44.696;10.522;2022-07-23T00:52:49;11.30;;;6.75;;
56005;SDS011;41888;44.696;10.522;2022-07-23T00:55:16;11.18;;;6.63;;
56005;SDS011;41888;44.696;10.522;2022-07-23T00:57:43;9.32;;;7.40;;
56005;SDS011;41888;44.696;10.522;2022-07-23T01:00:10;12.30;;;8.43;;
56005;SDS011;41888;44.696;10.522;2022-07-23T01:02:39;12.77;;;7.22;;
56005;SDS011;41888;44.696;10.522;2022-07-23T01:05:06;14.77;;;8.30;;
56005;SDS011;41888;44.696;10.522;2022-07-23T01:07:33;9.27;;;6.55;;
56005;SDS011;41888;44.696;10.522;2022-07-23T01:10:01;12.80;;;6.93;;
56005;SDS011;41888;44.696;10.522;2022-07-23T01:12:27;10.40;;;6.72;;
56005;SDS011;41888;44.696;10.522;2022-07-23T01:14:58;8.38;;;6.05;;
56005;SDS011;41888;44.696;10.522;2022-07-23T01:17:25;11.82;;;6.75;;
56005;SDS011;41888;44.696;10.522;2022-07-23T01:19:51;8.75;;;6.32;;
56005;SDS011;41888;44.696;10.522;2022-07-23T01:22:18;9.90;;;5.82;;
56005;SDS011;41888;44.696;10.522;2022-07-23T01:24:44;9.63;;;6.53;;
56005;SDS011;41888;44.696;10.522;2022-07-23T01:27:11;9.38;;;6.40;;
56005;SDS011;41888;44.696;10.522;2022-07-23T01:29:38;9.95;;;6.20;;
56005;SDS011;41888;44.696;10.522;2022-07-23T01:32:04;10.93;;;6.45;;
56005;SDS011;41888;44.696;10.522;2022-07-23T01:34:31;9.45;;;6.07;;
56005;SDS011;41888;44.696;10.522;2022-07-23T01:36:57;10.65;;;5.50;;
56005;SDS011;41888;44.696;10.522;2022-07-23T01:39:23;12.13;;;6.03;;
56005;SDS011;41888;44.696;10.522;2022-07-23T01:41:49;7.28;;;5.60;;
56005;SDS011;41888;44.696;10.522;2022-07-23T01:44:16;6.03;;;5.22;;
56005;SDS011;41888;44.696;10.522;2022-07-23T01:46:42;7.45;;;5.80;;
56005;SDS011;41888;44.696;10.522;2022-07-23T01:49:08;8.65;;;5.13;;
56005;SDS011;41888;44.696;10.522;2022-07-23T01:51:34;7.43;;;5.45;;
56005;SDS011;41888;44.696;10.522;2022-07-23T01:54:00;7.85;;;5.40;;
56005;SDS011;41888;44.696;10.522;2022-07-23T01:56:27;7.22;;;5.47;;
56005;SDS011;41888;44.696;10.522;2022-07-23T01:58:53;9.55;;;5.95;;
56005;SDS011;41888;44.696;10.522;2022-07-23T02:01:19;7.80;;;6.10;;
56005;SDS011;41888;44.696;10.522;2022-07-23T02:03:45;7.68;;;5.05;;
56005;SDS011;41888;44.696;10.522;2022-07-23T02:06:11;13.70;;;6.15;;
56005;SDS011;41888;44.696;10.522;2022-07-23T02:08:37;9.85;;;5.80;;
56005;SDS011;41888;44.696;10.522;2022-07-23T02:11:04;8.32;;;5.88;;
56005;SDS011;41888;44.696;10.522;2022-07-23T02:13:30;10.82;;;5.63;;
56005;SDS011;41888;44.696;10.522;2022-07-23T02:15:56;9.77;;;5.85;;
56005;SDS011;41888;44.696;10.522;2022-07-23T02:18:22;6.55;;;5.40;;
56005;SDS011;41888;44.696;10.522;2022-07-23T02:20:48;7.53;;;6.00;;
56005;SDS011;41888;44.696;10.522;2022-07-23T02:23:14;12.02;;;6.20;;
56005;SDS011;41888;44.696;10.522;2022-07-23T02:25:41;6.43;;;5.28;;
56005;SDS011;41888;44.696;10.522;2022-07-23T02:28:07;15.55;;;6.07;;
56005;SDS011;41888;44.696;10.522;2022-07-23T02:30:33;10.63;;;6.57;;
56005;SDS011;41888;44.696;10.522;2022-07-23T02:32:59;8.52;;;5.97;;
56005;SDS011;41888;44.696;10.522;2022-07-23T02:35:25;9.32;;;6.30;;
56005;SDS011;41888;44.696;10.522;2022-07-23T02:37:52;9.15;;;5.28;;
56005;SDS011;41888;44.696;10.522;2022-07-23T02:40:18;10.82;;;5.63;;
56005;SDS011;41888;44.696;10.522;2022-07-23T02:42:44;9.00;;;5.30;;
56005;SDS011;41888;44.696;10.522;2022-07-23T02:45:11;9.40;;;6.03;;
56005;SDS011;41888;44.696;10.522;2022-07-23T02:47:37;8.93;;;5.78;;
56005;SDS011;41888;44.696;10.522;2022-07-23T02:50:03;8.15;;;5.38;;
56005;SDS011;41888;44.696;10.522;2022-07-23T02:52:30;8.07;;;5.43;;
56005;SDS011;41888;44.696;10.522;2022-07-23T02:54:56;9.85;;;5.93;;
56005;SDS011;41888;44.696;10.522;2022-07-23T02:57:22;9.10;;;5.60;;
56005;SDS011;41888;44.696;10.522;2022-07-23T02:59:49;6.63;;;5.45;;
56005;SDS011;41888;44.696;10.522;2022-07-23T03:02:15;10.90;;;5.28;;
56005;SDS011;41888;44.696;10.522;2022-07-23T03:04:41;8.63;;;6.18;;
56005;SDS011;41888;44.696;10.522;2022-07-23T03:07:07;12.25;;;7.25;;
56005;SDS011;41888;44.696;10.522;2022-07-23T03:09:33;6.85;;;6.03;;
56005;SDS011;41888;44.696;10.522;2022-07-23T03:11:59;8.10;;;6.15;;
56005;SDS011;41888;44.696;10.522;2022-07-23T03:14:26;11.02;;;5.65;;
56005;SDS011;41888;44.696;10.522;2022-07-23T03:16:52;6.22;;;4.78;;
56005;SDS011;41888;44.696;10.522;2022-07-23T03:19:19;9.52;;;5.93;;
56005;SDS011;41888;44.696;10.522;2022-07-23T03:21:45;9.88;;;6.63;;
56005;SDS011;41888;44.696;10.522;2022-07-23T03:24:11;12.52;;;5.60;;
56005;SDS011;41888;44.696;10.522;2022-07-23T03:26:38;6.82;;;5.45;;
56005;SDS011;41888;44.696;10.522;2022-07-23T03:29:04;9.88;;;5.40;;
56005;SDS011;41888;44.696;10.522;2022-07-23T03:31:31;11.85;;;6.47;;
56005;SDS011;41888;44.696;10.522;2022-07-23T03:33:57;11.82;;;6.43;;
56005;SDS011;41888;44.696;10.522;2022-07-23T03:36:23;16.10;;;8.05;;
56005;SDS011;41888;44.696;10.522;2022-07-23T03:38:50;11.05;;;6.20;;
56005;SDS011;41888;44.696;10.522;2022-07-23T03:41:17;9.27;;;6.28;;
56005;SDS011;41888;44.696;10.522;2022-07-23T03:43:44;10.63;;;6.28;;
56005;SDS011;41888;44.696;10.522;2022-07-23T03:46:11;11.98;;;6.38;;
56005;SDS011;41888;44.696;10.522;2022-07-23T03:48:37;12.07;;;5.78;;
56005;SDS011;41888;44.696;10.522;2022-07-23T03:51:04;8.57;;;4.88;;
56005;SDS011;41888;44.696;10.522;2022-07-23T03:53:30;10.15;;;5.85;;
56005;SDS011;41888;44.696;10.522;2022-07-23T03:55:56;10.80;;;6.32;;
56005;SDS011;41888;44.696;10.522;2022-07-23T03:58:22;10.10;;;6.47;;
56005;SDS011;41888;44.696;10.522;2022-07-23T04:00:48;8.93;;;6.60;;
56005;SDS011;41888;44.696;10.522;2022-07-23T04:03:14;8.23;;;5.53;;
56005;SDS011;41888;44.696;10.522;2022-07-23T04:05:41;10.38;;;5.40;;
56005;SDS011;41888;44.696;10.522;2022-07-23T04:08:07;9.38;;;5.55;;
56005;SDS011;41888;44.696;10.522;2022-07-23T04:10:33;8.55;;;4.55;;
56005;SDS011;41888;44.696;10.522;2022-07-23T04:12:59;8.70;;;5.03;;
56005;SDS011;41888;44.696;10.522;2022-07-23T04:15:25;11.20;;;4.90;;
56005;SDS011;41888;44.696;10.522;2022-07-23T04:17:52;7.35;;;5.90;;
56005;SDS011;41888;44.696;10.522;2022-07-23T04:20:18;12.60;;;6.60;;
56005;SDS011;41888;44.696;10.522;2022-07-23T04:22:44;13.18;;;5.68;;
56005;SDS011;41888;44.696;10.522;2022-07-23T04:25:10;8.30;;;5.75;;
56005;SDS011;41888;44.696;10.522;2022-07-23T04:27:38;9.48;;;4.68;;
56005;SDS011;41888;44.696;10.522;2022-07-23T04:30:04;10.95;;;5.60;;
56005;SDS011;41888;44.696;10.522;2022-07-23T04:32:31;10.55;;;4.85;;
56005;SDS011;41888;44.696;10.522;2022-07-23T04:34:57;8.07;;;4.75;;
56005;SDS011;41888;44.696;10.522;2022-07-23T04:37:23;12.75;;;4.90;;
56005;SDS011;41888;44.696;10.522;2022-07-23T04:39:50;12.25;;;5.18;;
56005;SDS011;41888;44.696;10.522;2022-07-23T04:42:16;17.38;;;6.65;;
56005;SDS011;41888;44.696;10.522;2022-07-23T04:44:42;11.18;;;5.28;;
56005;SDS011;41888;44.696;10.522;2022-07-23T04:47:08;8.45;;;5.40;;
56005;SDS011;41888;44.696;10.522;2022-07-23T04:49:35;11.35;;;5.05;;
56005;SDS011;41888;44.696;10.522;2022-07-23T04:52:02;8.55;;;5.28;;
56005;SDS011;41888;44.696;10.522;2022-07-23T04:54:28;12.57;;;5.45;;
56005;SDS011;41888;44.696;10.522;2022-07-23T04:56:54;11.50;;;5.47;;
56005;SDS011;41888;44.696;10.522;2022-07-23T04:59:20;10.13;;;5.60;;
56005;SDS011;41888;44.696;10.522;2022-07-23T05:01:47;12.45;;;4.75;;
56005;SDS011;41888;44.696;10.522;2022-07-23T05:04:13;9.20;;;5.07;;
56005;SDS011;41888;44.696;10.522;2022-07-23T05:06:39;8.93;;;5.13;;
56005;SDS011;41888;44.696;10.522;2022-07-23T05:09:05;16.65;;;5.20;;
56005;SDS011;41888;44.696;10.522;2022-07-23T05:11:32;15.23;;;5.38;;
56005;SDS011;41888;44.696;10.522;2022-07-23T05:13:58;9.55;;;5.32;;
56005;SDS011;41888;44.696;10.522;2022-07-23T05:16:24;14.02;;;4.78;;
56005;SDS011;41888;44.696;10.522;2022-07-23T05:18:50;13.90;;;5.03;;
56005;SDS011;41888;44.696;10.522;2022-07-23T05:21:16;14.00;;;5.82;;
56005;SDS011;41888;44.696;10.522;2022-07-23T05:23:42;14.73;;;4.85;;
56005;SDS011;41888;44.696;10.522;2022-07-23T05:26:09;14.77;;;5.53;;
56005;SDS011;41888;44.696;10.522;2022-07-23T05:28:35;13.85;;;6.43;;
56005;SDS011;41888;44.696;10.522;2022-07-23T05:31:01;11.35;;;4.95;;
56005;SDS011;41888;44.696;10.522;2022-07-23T05:33:28;10.52;;;4.32;;
56005;SDS011;41888;44.696;10.522;2022-07-23T05:36:05;11.00;;;4.85;;
56005;SDS011;41888;44.696;10.522;2022-07-23T05:38:31;7.20;;;4.82;;
56005;SDS011;41888;44.696;10.522;2022-07-23T05:40:58;7.95;;;4.80;;
56005;SDS011;41888;44.696;10.522;2022-07-23T05:43:25;7.63;;;4.57;;
56005;SDS011;41888;44.696;10.522;2022-07-23T05:45:51;6.63;;;4.57;;
56005;SDS011;41888;44.696;10.522;2022-07-23T05:48:18;9.32;;;4.80;;
56005;SDS011;41888;44.696;10.522;2022-07-23T05:50:45;11.82;;;4.53;;
56005;SDS011;41888;44.696;10.522;2022-07-23T05:53:12;7.05;;;4.82;;
56005;SDS011;41888;44.696;10.522;2022-07-23T05:55:39;6.93;;;4.47;;
56005;SDS011;41888;44.696;10.522;2022-07-23T05:58:05;15.63;;;5.18;;
56005;SDS011;41888;44.696;10.522;2022-07-23T06:00:31;12.13;;;5.40;;
56005;SDS011;41888;44.696;10.522;2022-07-23T06:02:57;10.18;;;4.90;;
56005;SDS011;41888;44.696;10.522;2022-07-23T06:05:24;9.50;;;5.68;;
56005;SDS011;41888;44.696;10.522;2022-07-23T06:07:50;8.82;;;5.53;;
56005;SDS011;41888;44.696;10.522;2022-07-23T06:10:18;12.80;;;5.72;;
56005;SDS011;41888;44.696;10.522;2022-07-23T06:12:44;11.38;;;6.22;;
56005;SDS011;41888;44.696;10.522;2022-07-23T06:15:11;9.05;;;5.68;;
56005;SDS011;41888;44.696;10.522;2022-07-23T06:17:37;12.40;;;6.38;;
56005;SDS011;41888;44.696;10.522;2022-07-23T06:20:05;12.93;;;5.75;;
56005;SDS011;41888;44.696;10.522;2022-07-23T06:22:32;10.35;;;5.35;;
56005;SDS011;41888;44.696;10.522;2022-07-23T06:24:59;12.65;;;6.35;;
56005;SDS011;41888;44.696;10.522;2022-07-23T06:27:25;7.30;;;5.43;;
56005;SDS011;41888;44.696;10.522;2022-07-23T06:29:51;9.77;;;5.93;;
56005;SDS011;41888;44.696;10.522;2022-07-23T06:32:17;5.32;;;4.63;;
56005;SDS011;41888;44.696;10.522;2022-07-23T06:34:44;9.70;;;5.30;;
56005;SDS011;41888;44.696;10.522;2022-07-23T06:37:10;6.55;;;5.07;;
56005;SDS011;41888;44.696;10.522;2022-07-23T06:39:36;10.13;;;5.63;;
56005;SDS011;41888;44.696;10.522;2022-07-23T06:42:02;11.70;;;5.03;;
56005;SDS011;41888;44.696;10.522;2022-07-23T06:44:29;8.27;;;5.05;;
56005;SDS011;41888;44.696;10.522;2022-07-23T06:46:55;12.18;;;5.60;;
56005;SDS011;41888;44.696;10.522;2022-07-23T06:49:21;8.13;;;5.22;;
56005;SDS011;41888;44.696;10.522;2022-07-23T06:51:47;8.88;;;5.10;;
56005;SDS011;41888;44.696;10.522;2022-07-23T06:54:13;9.75;;;5.63;;
56005;SDS011;41888;44.696;10.522;2022-07-23T06:56:39;11.57;;;5.10;;
56005;SDS011;41888;44.696;10.522;2022-07-23T06:59:06;11.65;;;5.47;;
56005;SDS011;41888;44.696;10.522;2022-07-23T07:01:32;9.85;;;6.05;;
56005;SDS011;41888;44.696;10.522;2022-07-23T07:03:58;11.77;;;5.65;;
56005;SDS011;41888;44.696;10.522;2022-07-23T07:06:25;8.52;;;5.57;;
56005;SDS011;41888;44.696;10.522;2022-07-23T07:08:51;11.38;;;5.97;;
56005;SDS011;41888;44.696;10.522;2022-07-23T07:11:17;7.68;;;5.20;;
56005;SDS011;41888;44.696;10.522;2022-07-23T07:13:43;12.18;;;5.10;;
56005;SDS011;41888;44.696;10.522;2022-07-23T07:16:09;10.40;;;5.85;;
56005;SDS011;41888;44.696;10.522;2022-07-23T07:18:35;10.23;;;5.13;;
56005;SDS011;41888;44.696;10.522;2022-07-23T07:21:02;9.88;;;5.32;;
56005;SDS011;41888;44.696;10.522;2022-07-23T07:23:28;8.55;;;5.05;;
56005;SDS011;41888;44.696;10.522;2022-07-23T07:25:54;8.55;;;5.00;;
56005;SDS011;41888;44.696;10.522;2022-07-23T07:28:20;11.13;;;5.30;;
56005;SDS011;41888;44.696;10.522;2022-07-23T07:30:46;11.05;;;5.30;;
56005;SDS011;41888;44.696;10.522;2022-07-23T07:33:13;9.90;;;4.60;;
56005;SDS011;41888;44.696;10.522;2022-07-23T07:35:39;8.98;;;4.93;;
56005;SDS011;41888;44.696;10.522;2022-07-23T07:38:05;8.50;;;4.93;;
56005;SDS011;41888;44.696;10.522;2022-07-23T07:40:31;11.77;;;5.03;;
56005;SDS011;41888;44.696;10.522;2022-07-23T07:42:57;8.10;;;5.00;;
56005;SDS011;41888;44.696;10.522;2022-07-23T07:45:24;6.90;;;5.30;;
56005;SDS011;41888;44.696;10.522;2022-07-23T07:47:51;6.53;;;4.68;;
56005;SDS011;41888;44.696;10.522;2022-07-23T07:50:18;8.38;;;5.03;;
56005;SDS011;41888;44.696;10.522;2022-07-23T07:52:45;8.70;;;4.93;;
56005;SDS011;41888;44.696;10.522;2022-07-23T07:55:11;7.28;;;5.03;;
56005;SDS011;41888;44.696;10.522;2022-07-23T07:57:38;8.90;;;4.53;;
56005;SDS011;41888;44.696;10.522;2022-07-23T08:00:05;8.05;;;4.63;;
56005;SDS011;41888;44.696;10.522;2022-07-23T08:05:13;11.70;;;4.85;;
56005;SDS011;41888;44.696;10.522;2022-07-23T08:07:43;13.15;;;4.95;;
56005;SDS011;41888;44.696;10.522;2022-07-23T08:10:09;11.68;;;5.57;;
56005;SDS011;41888;44.696;10.522;2022-07-23T08:15:09;10.75;;;5.13;;
56005;SDS011;41888;44.696;10.522;2022-07-23T08:17:37;7.47;;;5.03;;
56005;SDS011;41888;44.696;10.522;2022-07-23T08:20:03;12.32;;;5.68;;
56005;SDS011;41888;44.696;10.522;2022-07-23T08:22:43;12.05;;;5.70;;
56005;SDS011;41888;44.696;10.522;2022-07-23T08:25:12;7.95;;;5.38;;
56005;SDS011;41888;44.696;10.522;2022-07-23T08:27:38;9.25;;;5.20;;
56005;SDS011;41888;44.696;10.522;2022-07-23T08:30:04;10.10;;;5.72;;
56005;SDS011;41888;44.696;10.522;2022-07-23T08:32:31;9.35;;;5.18;;
56005;SDS011;41888;44.696;10.522;2022-07-23T08:34:57;11.45;;;5.32;;
56005;SDS011;41888;44.696;10.522;2022-07-23T08:37:23;13.40;;;5.22;;
56005;SDS011;41888;44.696;10.522;2022-07-23T08:39:50;11.95;;;7.03;;
56005;SDS011;41888;44.696;10.522;2022-07-23T08:42:16;11.93;;;6.45;;
56005;SDS011;41888;44.696;10.522;2022-07-23T08:44:44;13.30;;;5.50;;
56005;SDS011;41888;44.696;10.522;2022-07-23T08:47:11;15.43;;;5.97;;
56005;SDS011;41888;44.696;10.522;2022-07-23T08:49:40;10.63;;;5.60;;
56005;SDS011;41888;44.696;10.522;2022-07-23T08:52:07;8.00;;;5.70;;
56005;SDS011;41888;44.696;10.522;2022-07-23T08:54:34;8.25;;;5.93;;
56005;SDS011;41888;44.696;10.522;2022-07-23T08:57:00;9.80;;;6.05;;
56005;SDS011;41888;44.696;10.522;2022-07-23T08:59:27;11.52;;;6.75;;
56005;SDS011;41888;44.696;10.522;2022-07-23T09:01:53;8.50;;;5.95;;
56005;SDS011;41888;44.696;10.522;2022-07-23T09:04:20;9.25;;;5.97;;
56005;SDS011;41888;44.696;10.522;2022-07-23T09:06:46;8.55;;;6.15;;
56005;SDS011;41888;44.696;10.522;2022-07-23T09:09:18;14.85;;;6.93;;
56005;SDS011;41888;44.696;10.522;2022-07-23T09:14:12;10.27;;;6.82;;
56005;SDS011;41888;44.696;10.522;2022-07-23T09:16:38;12.00;;;7.18;;
56005;SDS011;41888;44.696;10.522;2022-07-23T09:19:05;8.23;;;6.18;;
56005;SDS011;41888;44.696;10.522;2022-07-23T09:21:36;10.95;;;6.03;;
56005;SDS011;41888;44.696;10.522;2022-07-23T09:24:04;13.82;;;7.78;;
56005;SDS011;41888;44.696;10.522;2022-07-23T09:26:39;11.35;;;7.43;;
56005;SDS011;41888;44.696;10.522;2022-07-23T09:31:54;14.32;;;7.35;;
56005;SDS011;41888;44.696;10.522;2022-07-23T09:34:28;14.02;;;6.78;;
56005;SDS011;41888;44.696;10.522;2022-07-23T09:36:58;11.32;;;7.28;;
56005;SDS011;41888;44.696;10.522;2022-07-23T09:39:35;16.88;;;7.60;;
56005;SDS011;41888;44.696;10.522;2022-07-23T09:42:14;10.48;;;6.60;;
56005;SDS011;41888;44.696;10.522;2022-07-23T09:44:47;10.10;;;6.75;;
56005;SDS011;41888;44.696;10.522;2022-07-23T09:47:14;14.00;;;6.80;;
56005;SDS011;41888;44.696;10.522;2022-07-23T09:52:31;12.93;;;7.63;;
56005;SDS011;41888;44.696;10.522;2022-07-23T09:55:00;16.02;;;6.78;;
56005;SDS011;41888;44.696;10.522;2022-07-23T09:57:33;8.45;;;6.15;;
56005;SDS011;41888;44.696;10.522;2022-07-23T10:00:05;13.00;;;6.10;;
56005;SDS011;41888;44.696;10.522;2022-07-23T10:02:34;8.43;;;6.90;;
56005;SDS011;41888;44.696;10.522;2022-07-23T10:05:01;10.48;;;6.32;;
56005;SDS011;41888;44.696;10.522;2022-07-23T10:07:28;12.75;;;6.90;;
56005;SDS011;41888;44.696;10.522;2022-07-23T10:10:00;8.38;;;6.55;;
56005;SDS011;41888;44.696;10.522;2022-07-23T10:12:27;12.40;;;6.32;;
56005;SDS011;41888;44.696;10.522;2022-07-23T10:14:53;14.40;;;6.35;;
56005;SDS011;41888;44.696;10.522;2022-07-23T10:17:21;10.95;;;6.28;;
56005;SDS011;41888;44.696;10.522;2022-07-23T10:19:47;9.73;;;6.32;;
56005;SDS011;41888;44.696;10.522;2022-07-23T10:22:21;11.95;;;7.57;;
56005;SDS011;41888;44.696;10.522;2022-07-23T10:30:02;9.73;;;6.13;;
56005;SDS011;41888;44.696;10.522;2022-07-23T10:35:26;8.25;;;5.93;;
56005;SDS011;41888;44.696;10.522;2022-07-23T10:41:13;7.40;;;6.50;;
56005;SDS011;41888;44.696;10.522;2022-07-23T10:43:39;8.95;;;6.00;;
56005;SDS011;41888;44.696;10.522;2022-07-23T10:46:24;7.43;;;6.00;;
56005;SDS011;41888;44.696;10.522;2022-07-23T10:57:26;11.02;;;6.10;;
56005;SDS011;41888;44.696;10.522;2022-07-23T11:02:37;9.60;;;6.55;;
56005;SDS011;41888;44.696;10.522;2022-07-23T11:05:06;9.52;;;6.35;;
56005;SDS011;41888;44.696;10.522;2022-07-23T11:07:44;7.88;;;6.07;;
56005;SDS011;41888;44.696;10.522;2022-07-23T11:10:35;9.50;;;6.28;;
56005;SDS011;41888;44.696;10.522;2022-07-23T11:31:55;8.88;;;5.50;;
56005;SDS011;41888;44.696;10.522;2022-07-23T11:37:04;8.57;;;6.00;;
56005;SDS011;41888;44.696;10.522;2022-07-23T11:39:34;13.45;;;6.18;;
56005;SDS011;41888;44.696;10.522;2022-07-23T11:42:01;7.35;;;5.70;;
56005;SDS011;41888;44.696;10.522;2022-07-23T11:44:36;9.38;;;5.97;;
56005;SDS011;41888;44.696;10.522;2022-07-23T11:47:04;9.82;;;6.28;;
56005;SDS011;41888;44.696;10.522;2022-07-23T11:49:32;8.60;;;6.43;;
56005;SDS011;41888;44.696;10.522;2022-07-23T11:52:12;8.75;;;5.68;;
56005;SDS011;41888;44.696;10.522;2022-07-23T11:54:50;8.75;;;6.07;;
56005;SDS011;41888;44.696;10.522;2022-07-23T11:57:20;8.20;;;5.88;;
56005;SDS011;41888;44.696;10.522;2022-07-23T11:59:51;8.80;;;6.00;;
56005;SDS011;41888;44.696;10.522;2022-07-23T12:02:21;9.55;;;6.18;;
56005;SDS011;41888;44.696;10.522;2022-07-23T12:04:48;7.85;;;6.22;;
56005;SDS011;41888;44.696;10.522;2022-07-23T12:09:59;8.55;;;5.70;;
56005;SDS011;41888;44.696;10.522;2022-07-23T12:12:27;7.57;;;5.80;;
56005;SDS011;41888;44.696;10.522;2022-07-23T12:15:05;9.27;;;5.82;;
56005;SDS011;41888;44.696;10.522;2022-07-23T12:17:33;9.18;;;5.65;;
56005;SDS011;41888;44.696;10.522;2022-07-23T12:20:01;9.65;;;5.97;;
56005;SDS011;41888;44.696;10.522;2022-07-23T12:22:36;7.03;;;5.88;;
56005;SDS011;41888;44.696;10.522;2022-07-23T12:25:05;8.98;;;6.05;;
56005;SDS011;41888;44.696;10.522;2022-07-23T12:27:34;7.93;;;6.15;;
56005;SDS011;41888;44.696;10.522;2022-07-23T12:30:17;7.30;;;5.78;;
56005;SDS011;41888;44.696;10.522;2022-07-23T12:32:44;10.55;;;5.90;;
56005;SDS011;41888;44.696;10.522;2022-07-23T12:35:11;7.35;;;6.20;;
56005;SDS011;41888;44.696;10.522;2022-07-23T12:37:39;18.40;;;6.75;;
56005;SDS011;41888;44.696;10.522;2022-07-23T12:43:02;6.53;;;5.82;;
56005;SDS011;41888;44.696;10.522;2022-07-23T12:45:43;10.55;;;6.55;;
56005;SDS011;41888;44.696;10.522;2022-07-23T12:48:15;7.80;;;6.28;;
56005;SDS011;41888;44.696;10.522;2022-07-23T12:53:39;10.48;;;6.18;;
56005;SDS011;41888;44.696;10.522;2022-07-23T12:56:12;9.45;;;5.75;;
56005;SDS011;41888;44.696;10.522;2022-07-23T12:58:53;6.00;;;5.40;;
56005;SDS011;41888;44.696;10.522;2022-07-23T13:01:44;6.93;;;5.93;;
56005;SDS011;41888;44.696;10.522;2022-07-23T13:04:19;7.57;;;5.80;;
56005;SDS011;41888;44.696;10.522;2022-07-23T13:06:48;7.60;;;5.15;;
56005;SDS011;41888;44.696;10.522;2022-07-23T13:09:20;8.10;;;5.60;;
56005;SDS011;41888;44.696;10.522;2022-07-23T13:11:48;12.07;;;5.50;;
56005;SDS011;41888;44.696;10.522;2022-07-23T13:14:16;7.88;;;6.22;;
56005;SDS011;41888;44.696;10.522;2022-07-23T13:16:43;7.85;;;6.00;;
56005;SDS011;41888;44.696;10.522;2022-07-23T13:19:10;9.90;;;6.13;;
56005;SDS011;41888;44.696;10.522;2022-07-23T13:21:37;9.48;;;5.68;;
56005;SDS011;41888;44.696;10.522;2022-07-23T13:24:03;8.68;;;5.93;;
56005;SDS011;41888;44.696;10.522;2022-07-23T13:26:30;7.18;;;5.90;;
56005;SDS011;41888;44.696;10.522;2022-07-23T13:28:56;5.95;;;5.35;;
56005;SDS011;41888;44.696;10.522;2022-07-23T13:31:23;7.57;;;5.10;;
56005;SDS011;41888;44.696;10.522;2022-07-23T13:33:49;8.20;;;5.80;;
56005;SDS011;41888;44.696;10.522;2022-07-23T13:36:15;9.45;;;5.65;;
56005;SDS011;41888;44.696;10.522;2022-07-23T13:38:41;13.02;;;5.70;;
56005;SDS011;41888;44.696;10.522;2022-07-23T13:41:08;6.55;;;5.32;;
56005;SDS011;41888;44.696;10.522;2022-07-23T13:43:34;9.90;;;5.53;;
56005;SDS011;41888;44.696;10.522;2022-07-23T13:46:00;8.25;;;5.50;;
56005;SDS011;41888;44.696;10.522;2022-07-23T13:48:27;7.43;;;5.18;;
56005;SDS011;41888;44.696;10.522;2022-07-23T13:50:54;7.18;;;6.00;;
56005;SDS011;41888;44.696;10.522;2022-07-23T13:53:21;6.43;;;5.15;;
56005;SDS011;41888;44.696;10.522;2022-07-23T13:55:49;7.15;;;5.18;;
56005;SDS011;41888;44.696;10.522;2022-07-23T13:58:16;6.30;;;5.25;;
56005;SDS011;41888;44.696;10.522;2022-07-23T14:00:44;8.90;;;6.03;;
56005;SDS011;41888;44.696;10.522;2022-07-23T14:03:13;7.30;;;5.60;;
56005;SDS011;41888;44.696;10.522;2022-07-23T14:05:40;7.38;;;5.53;;
56005;SDS011;41888;44.696;10.522;2022-07-23T14:08:07;6.25;;;5.22;;
56005;SDS011;41888;44.696;10.522;2022-07-23T14:10:33;8.30;;;5.90;;
56005;SDS011;41888;44.696;10.522;2022-07-23T14:13:00;9.50;;;5.40;;
56005;SDS011;41888;44.696;10.522;2022-07-23T14:15:27;9.05;;;6.20;;
56005;SDS011;41888;44.696;10.522;2022-07-23T14:17:56;8.30;;;5.70;;
56005;SDS011;41888;44.696;10.522;2022-07-23T14:20:22;6.50;;;5.90;;
56005;SDS011;41888;44.696;10.522;2022-07-23T14:22:49;8.13;;;6.07;;
56005;SDS011;41888;44.696;10.522;2022-07-23T14:25:16;9.88;;;6.03;;
56005;SDS011;41888;44.696;10.522;2022-07-23T14:27:42;9.52;;;5.90;;
56005;SDS011;41888;44.696;10.522;2022-07-23T14:30:10;7.20;;;5.70;;
56005;SDS011;41888;44.696;10.522;2022-07-23T14:32:37;9.88;;;5.57;;
56005;SDS011;41888;44.696;10.522;2022-07-23T14:35:04;6.50;;;5.50;;
56005;SDS011;41888;44.696;10.522;2022-07-23T14:37:31;7.93;;;6.20;;
56005;SDS011;41888;44.696;10.522;2022-07-23T14:39:57;12.00;;;6.13;;
56005;SDS011;41888;44.696;10.522;2022-07-23T14:42:24;8.73;;;6.03;;
56005;SDS011;41888;44.696;10.522;2022-07-23T14:44:50;7.03;;;5.78;;
56005;SDS011;41888;44.696;10.522;2022-07-23T14:47:16;9.38;;;6.07;;
56005;SDS011;41888;44.696;10.522;2022-07-23T14:49:43;7.82;;;5.82;;
56005;SDS011;41888;44.696;10.522;2022-07-23T14:52:09;7.45;;;6.53;;
56005;SDS011;41888;44.696;10.522;2022-07-23T14:54:35;8.98;;;6.20;;
56005;SDS011;41888;44.696;10.522;2022-07-23T14:57:02;9.60;;;5.88;;
56005;SDS011;41888;44.696;10.522;2022-07-23T14:59:29;8.50;;;6.80;;
56005;SDS011;41888;44.696;10.522;2022-07-23T15:01:55;9.25;;;6.55;;
56005;SDS011;41888;44.696;10.522;2022-07-23T15:04:22;12.10;;;6.28;;
56005;SDS011;41888;44.696;10.522;2022-07-23T15:06:49;9.05;;;6.40;;
56005;SDS011;41888;44.696;10.522;2022-07-23T15:09:16;8.25;;;6.38;;
56005;SDS011;41888;44.696;10.522;2022-07-23T15:11:42;8.57;;;6.10;;
56005;SDS011;41888;44.696;10.522;2022-07-23T15:14:09;15.70;;;6.93;;
56005;SDS011;41888;44.696;10.522;2022-07-23T15:16:35;23.40;;;6.68;;
56005;SDS011;41888;44.696;10.522;2022-07-23T15:19:02;6.63;;;4.97;;
56005;SDS011;41888;44.696;10.522;2022-07-23T15:21:29;6.13;;;4.07;;
56005;SDS011;41888;44.696;10.522;2022-07-23T15:23:55;7.97;;;4.55;;
56005;SDS011;41888;44.696;10.522;2022-07-23T15:26:25;8.80;;;3.78;;
56005;SDS011;41888;44.696;10.522;2022-07-23T15:28:52;8.43;;;4.25;;
56005;SDS011;41888;44.696;10.522;2022-07-23T15:31:19;6.35;;;3.78;;
56005;SDS011;41888;44.696;10.522;2022-07-23T15:33:45;6.68;;;3.95;;
56005;SDS011;41888;44.696;10.522;2022-07-23T15:36:12;6.75;;;3.78;;